This is the latest recevied weather packets stored in our database for station/object DH1NAI-6. If no packets are shown the sender has not sent any weather packets the latest 10 day(s).
| Time | Temp. | Humidity | Pressure | Rain* | Wind** | Luminosity | Snow |
|---|---|---|---|---|---|---|---|
| 1787422935 | 12.22° C | 93% | 1017.6 hPa | 0 mm | - | 0 W/m² | - |
| 1787422327 | 12.22° C | 92% | 1017.6 hPa | 0 mm | - | 1 W/m² | - |
| 1787421719 | 12.78° C | 90% | 1017.5 hPa | 0 mm | - | 2 W/m² | - |
| 1787421095 | 13.33° C | 88% | 1017.4 hPa | 0 mm | - | 3 W/m² | - |
| 1787420487 | 13.89° C | 86% | 1017.4 hPa | 0 mm | - | 6 W/m² | - |
| 1787419880 | 14.44° C | 84% | 1017.5 hPa | 0 mm | - | 6 W/m² | - |
| 1787419271 | 14.44° C | 80% | 1017.2 hPa | 0 mm | - | 3 W/m² | - |
| 1787418664 | 15° C | 78% | 1017.1 hPa | 0 mm | - | 8 W/m² | - |
| 1787418055 | 15.56° C | 76% | 1017.2 hPa | 0 mm | - | 11 W/m² | - |
| 1787417448 | 15.56° C | 76% | 1017 hPa | 0 mm | - | 13 W/m² | - |
| 1787416839 | 15.56° C | 74% | 1016.8 hPa | 0 mm | - | 17 W/m² | - |
| 1787416232 | 16.11° C | 75% | 1017.1 hPa | 0 mm | - | 28 W/m² | - |
| 1787415623 | 15.56° C | 77% | 1016.9 hPa | 0 mm | - | 19 W/m² | - |
| 1787415016 | 15.56° C | 76% | 1017 hPa | 0 mm | - | 19 W/m² | - |
| 1787414407 | 15.56° C | 73% | 1016.8 hPa | 0 mm | - | 16 W/m² | - |
| 1787413800 | 16.11° C | 71% | 1016.9 hPa | 0 mm | - | 24 W/m² | - |
| 1787413191 | 16.67° C | 70% | 1016.7 hPa | 0 mm | - | 76 W/m² | - |
| 1787412584 | 16.67° C | 70% | 1016.8 hPa | 0 mm | - | 103 W/m² | - |
| 1787411972 | 17.22° C | 68% | 1016.6 hPa | 0 mm | - | 100 W/m² | - |
| 1787411368 | 17.22° C | 67% | 1016.7 hPa | 0 mm | - | 119 W/m² | - |
| 1787410759 | 17.78° C | 67% | 1016.4 hPa | 0 mm | - | 50 W/m² | - |
| 1787410152 | 17.22° C | 72% | 1016.4 hPa | 0 mm | - | 135 W/m² | - |
| 1787409543 | 16.67° C | 73% | 1016.2 hPa | 0 mm | - | 145 W/m² | - |
| 1787408936 | 16.67° C | 75% | 1016.2 hPa | 0 mm | - | 166 W/m² | - |
| 1787408327 | 15.56° C | 78% | 1016.2 hPa | 0 mm | - | 49 W/m² | - |
* Rain latest hour (hover to see other rain measurements)
** Current wind speed in m/s (hover to see current wind gust speed)